createdAt,value
2019-01-05T00:01:23.936Z,43.93
2019-01-05T00:04:12.024Z,43.93
2019-01-05T00:07:07.581Z,44.60
2019-01-05T00:09:56.922Z,45.27
2019-01-05T00:12:52.437Z,44.63
2019-01-05T00:15:46.458Z,46.57
2019-01-05T00:18:36.215Z,46.20
2019-01-05T00:21:29.263Z,45.43
2019-01-05T00:24:17.582Z,45.47
2019-01-05T00:27:16.820Z,45.13
2019-01-05T00:30:18.889Z,45.43
2019-01-05T00:33:19.662Z,46.83
2019-01-05T00:36:10.934Z,46.67
2019-01-05T00:39:08.567Z,47.53
2019-01-05T00:42:08.932Z,43.93
2019-01-05T00:44:57.757Z,46.13
2019-01-05T00:47:47.265Z,46.23
2019-01-05T00:50:40.336Z,47.43
2019-01-05T00:53:28.479Z,47.37
2019-01-05T00:56:16.806Z,45.40
2019-01-05T00:59:13.005Z,48.17
2019-01-05T01:02:01.575Z,44.67
2019-01-05T01:05:06.152Z,47.13
2019-01-05T01:08:13.622Z,45.43
2019-01-05T01:11:01.554Z,44.80
2019-01-05T01:13:51.994Z,41.50
2019-01-05T01:16:55.288Z,42.63
2019-01-05T01:19:48.225Z,43.23
2019-01-05T01:22:52.838Z,44.27
2019-01-05T01:25:40.947Z,46.03
2019-01-05T01:28:28.894Z,42.17
2019-01-05T01:31:21.130Z,41.63
2019-01-05T01:34:25.875Z,40.67
2019-01-05T01:37:33.573Z,44.00
2019-01-05T01:40:24.878Z,44.00
2019-01-05T01:43:13.691Z,45.90
2019-01-05T01:46:02.631Z,41.87
2019-01-05T01:49:10.128Z,41.03
2019-01-05T01:52:18.400Z,42.17
2019-01-05T01:55:06.391Z,44.30
2019-01-05T01:57:56.687Z,41.10
2019-01-05T02:00:45.423Z,42.63
2019-01-05T02:03:43.693Z,41.07
2019-01-05T02:06:37.604Z,42.70
2019-01-05T02:09:26.244Z,43.73
2019-01-05T02:12:36.662Z,41.20
2019-01-05T02:15:24.487Z,38.47
2019-01-05T02:19:06.054Z,42.03
2019-01-05T02:22:21.258Z,41.43
2019-01-05T02:26:12.449Z,44.37
2019-01-05T02:29:38.588Z,39.83
2019-01-05T02:33:06.664Z,42.97
2019-01-05T02:36:28.274Z,45.20
2019-01-05T02:39:51.562Z,37.83
2019-01-05T02:43:15.301Z,39.97
2019-01-05T02:46:43.406Z,40.17
2019-01-05T02:50:14.776Z,41.03
2019-01-05T02:54:00.576Z,42.17
2019-01-05T02:57:43.255Z,43.57
2019-01-05T03:01:14.438Z,43.83
2019-01-05T03:04:44.195Z,38.47
2019-01-05T03:08:16.355Z,44.17
2019-01-05T03:12:04.569Z,43.17
2019-01-05T03:15:27.536Z,38.17
2019-01-05T03:19:02.286Z,43.80
2019-01-05T03:22:34.385Z,37.83
2019-01-05T03:26:15.179Z,39.17
2019-01-05T03:29:36.841Z,39.97
2019-01-05T03:32:51.253Z,40.40
2019-01-05T03:36:27.627Z,38.43
2019-01-05T03:39:57.482Z,37.33
2019-01-05T03:43:38.613Z,41.97
2019-01-05T03:47:05.421Z,43.17
2019-01-05T03:50:59.591Z,42.37
2019-01-05T03:54:21.095Z,44.17
2019-01-05T03:57:47.042Z,45.43
2019-01-05T04:01:13.230Z,43.43
2019-01-05T04:04:37.088Z,45.87
2019-01-05T04:08:04.459Z,43.07
2019-01-05T04:11:35.366Z,42.63
2019-01-05T04:15:14.247Z,41.27
2019-01-05T04:18:37.042Z,43.07
2019-01-05T04:22:25.320Z,44.50
2019-01-05T04:25:41.213Z,47.17
2019-01-05T04:29:11.770Z,47.80
2019-01-05T04:32:58.646Z,42.83
2019-01-05T04:36:33.333Z,45.37
2019-01-05T04:40:15.301Z,47.20
2019-01-05T04:43:16.202Z,41.57
2019-01-05T04:46:45.785Z,46.83
2019-01-05T04:50:37.233Z,44.47
2019-01-05T04:54:22.601Z,49.73
2019-01-05T04:57:51.112Z,48.93
2019-01-05T05:01:22.506Z,47.60
2019-01-05T05:04:53.576Z,47.13
2019-01-05T05:08:10.678Z,46.90
2019-01-05T05:11:28.029Z,50.93
2019-01-05T05:15:09.155Z,49.23
2019-01-05T05:18:59.554Z,51.00
2019-01-05T05:22:45.135Z,49.53
2019-01-05T05:26:10.018Z,53.87
2019-01-05T05:29:51.271Z,54.93
2019-01-05T05:33:05.009Z,55.80
2019-01-05T05:36:36.914Z,53.27
2019-01-05T05:40:33.155Z,56.80
2019-01-05T05:44:06.115Z,55.27
2019-01-05T05:47:52.593Z,57.20
2019-01-05T05:51:13.045Z,57.40
2019-01-05T05:54:41.191Z,57.60
2019-01-05T05:58:14.812Z,63.93
2019-01-05T06:01:43.366Z,57.57
2019-01-05T06:05:23.980Z,59.60
2019-01-05T06:08:49.418Z,59.17
2019-01-05T06:12:51.173Z,63.37
2019-01-05T06:16:27.291Z,66.43
2019-01-05T06:20:13.560Z,59.43
2019-01-05T06:24:12.517Z,68.17
2019-01-05T06:27:53.535Z,62.23
2019-01-05T06:31:22.561Z,63.57
2019-01-05T06:34:54.273Z,69.47
2019-01-05T06:37:57.446Z,65.37
2019-01-05T06:41:44.334Z,63.10
2019-01-05T06:45:02.383Z,69.47
2019-01-05T06:48:29.835Z,68.53
2019-01-05T06:52:21.350Z,66.30
2019-01-05T06:55:45.552Z,70.43
2019-01-05T06:59:10.356Z,72.03
2019-01-05T07:02:51.482Z,84.03
2019-01-05T07:06:33.236Z,74.67
2019-01-05T07:10:11.728Z,68.30
2019-01-05T07:14:06.320Z,83.90
2019-01-05T07:17:38.330Z,80.33
2019-01-05T07:21:26.650Z,80.53
2019-01-05T07:25:01.754Z,77.23
2019-01-05T07:28:46.049Z,83.47
2019-01-05T07:32:03.778Z,84.27
2019-01-05T07:35:28.858Z,75.83
2019-01-05T07:38:53.950Z,80.97
2019-01-05T07:42:41.866Z,92.93
2019-01-05T07:46:15.363Z,75.23
2019-01-05T07:49:42.076Z,89.20
2019-01-05T07:53:08.864Z,83.20
2019-01-05T07:56:26.087Z,88.33
2019-01-05T08:00:13.725Z,94.70
2019-01-05T08:04:17.206Z,87.20
2019-01-05T08:07:55.926Z,86.97
2019-01-05T08:11:35.280Z,90.10
2019-01-05T08:15:10.656Z,89.63
2019-01-05T08:18:27.970Z,78.03
2019-01-05T08:21:57.682Z,84.33
2019-01-05T08:25:24.323Z,81.03
2019-01-05T08:28:43.785Z,82.60
2019-01-05T08:32:26.333Z,76.07
2019-01-05T08:36:14.177Z,100.80
2019-01-05T08:39:55.159Z,76.67
2019-01-05T08:43:18.932Z,78.00
2019-01-05T08:46:56.340Z,73.50
2019-01-05T08:50:33.135Z,77.83
2019-01-05T09:01:49.003Z,81.37
2019-01-05T09:05:53.942Z,77.37
2019-01-05T09:09:21.474Z,68.43
2019-01-05T09:12:45.463Z,84.67
2019-01-05T09:16:35.542Z,74.83
2019-01-05T09:20:13.343Z,76.90
2019-01-05T09:23:56.907Z,69.77
2019-01-05T09:27:26.168Z,68.23
2019-01-05T09:30:45.565Z,68.83
2019-01-05T09:34:24.062Z,65.90
2019-01-05T09:37:41.399Z,73.87
2019-01-05T09:41:05.659Z,64.70
2019-01-05T09:44:34.575Z,72.73
2019-01-05T09:47:50.770Z,78.93
2019-01-05T09:51:16.682Z,66.90
2019-01-05T09:55:01.329Z,59.37
2019-01-05T09:58:26.951Z,56.90
2019-01-05T10:02:14.194Z,69.03
2019-01-05T10:05:43.842Z,52.63
2019-01-05T10:09:06.817Z,61.40
2019-01-05T10:12:35.748Z,66.20
2019-01-05T10:16:02.335Z,60.63
2019-01-05T10:20:07.195Z,57.97
2019-01-05T10:24:03.053Z,52.63
2019-01-05T10:27:20.915Z,52.87
2019-01-05T10:30:38.370Z,56.63
2019-01-05T10:34:15.689Z,57.57
2019-01-05T10:37:42.444Z,59.33
2019-01-05T10:41:26.170Z,57.90
2019-01-05T10:44:54.905Z,51.43
2019-01-05T10:48:36.623Z,51.03
2019-01-05T10:52:06.740Z,49.50
2019-01-05T10:55:35.415Z,53.07
2019-01-05T10:59:04.075Z,48.63
2019-01-05T11:02:36.337Z,48.30
2019-01-05T11:06:09.092Z,48.37
2019-01-05T11:09:31.102Z,42.67
2019-01-05T11:12:58.822Z,41.63
2019-01-05T11:16:22.055Z,39.03
2019-01-05T11:19:47.377Z,46.10
2019-01-05T11:23:20.811Z,44.20
2019-01-05T11:26:57.166Z,43.17
2019-01-05T11:30:47.733Z,43.07
2019-01-05T11:34:21.453Z,46.63
2019-01-05T11:37:44.020Z,47.63
2019-01-05T11:41:18.884Z,48.03
2019-01-05T11:44:49.158Z,48.50
2019-01-05T11:48:17.892Z,52.37
2019-01-05T11:52:33.509Z,50.60
2019-01-05T11:56:05.371Z,43.47
2019-01-05T11:59:57.097Z,42.63
2019-01-05T12:03:56.805Z,44.37
2019-01-05T12:07:26.648Z,43.87
2019-01-05T12:11:04.057Z,43.87
2019-01-05T12:15:00.337Z,45.03
2019-01-05T12:18:50.308Z,42.87
2019-01-05T12:22:27.296Z,42.77
2019-01-05T12:26:01.875Z,40.03
2019-01-05T12:29:37.155Z,43.57
2019-01-05T12:33:19.241Z,42.40
2019-01-05T12:36:54.677Z,49.63
2019-01-05T12:40:51.267Z,45.50
2019-01-05T12:44:28.122Z,50.80
2019-01-05T12:48:09.481Z,48.17
2019-01-05T12:51:40.546Z,50.83
2019-01-05T12:55:41.452Z,44.93
2019-01-05T12:59:07.611Z,41.57
2019-01-05T13:02:50.066Z,38.47
2019-01-05T13:05:47.441Z,41.27
2019-01-05T13:09:18.186Z,40.90
2019-01-05T13:12:55.031Z,34.50
2019-01-05T13:16:30.063Z,38.67
2019-01-05T13:20:21.374Z,36.37
2019-01-05T13:23:46.537Z,39.17
2019-01-05T13:27:17.263Z,35.00
2019-01-05T13:31:13.722Z,37.93
2019-01-05T13:35:13.234Z,37.57
2019-01-05T13:38:33.070Z,33.10
2019-01-05T13:42:17.099Z,39.07
2019-01-05T13:46:14.522Z,42.60
2019-01-05T13:49:28.530Z,39.53
2019-01-05T13:52:37.983Z,33.97
2019-01-05T13:55:43.085Z,33.23
2019-01-05T13:58:32.439Z,33.73
2019-01-05T14:01:34.131Z,37.23
2019-01-05T14:04:36.315Z,36.07
2019-01-05T14:07:37.863Z,33.13
2019-01-05T14:10:40.727Z,31.10
2019-01-05T14:13:28.998Z,30.00
2019-01-05T14:16:27.047Z,29.83
2019-01-05T14:19:14.990Z,30.80
2019-01-05T14:22:04.327Z,34.67
2019-01-05T14:24:58.864Z,35.13
2019-01-05T14:27:56.982Z,35.57
2019-01-05T14:30:46.334Z,29.00
2019-01-05T14:33:34.509Z,33.37
2019-01-05T14:36:23.868Z,34.13
2019-01-05T14:39:11.765Z,37.60
2019-01-05T14:42:01.522Z,35.20
2019-01-05T14:45:09.004Z,35.77
2019-01-05T14:48:01.365Z,37.53
2019-01-05T14:50:49.698Z,34.70
2019-01-05T14:53:51.122Z,35.27
2019-01-05T14:56:55.563Z,36.07
2019-01-05T14:59:58.623Z,36.33
2019-01-05T15:02:41.944Z,38.27
2019-01-05T15:05:37.183Z,40.13
2019-01-05T15:08:25.402Z,39.80
2019-01-05T15:11:25.154Z,41.63
2019-01-05T15:14:14.450Z,41.60
2019-01-05T15:17:22.173Z,42.67
2019-01-05T15:20:11.482Z,44.33
2019-01-05T15:22:59.433Z,41.50
2019-01-05T15:25:54.639Z,42.10
2019-01-05T15:28:42.562Z,42.60
2019-01-05T15:31:40.964Z,44.47
2019-01-05T15:34:36.432Z,44.50
2019-01-05T15:37:29.619Z,48.47
2019-01-05T15:40:25.337Z,45.47
2019-01-05T15:43:18.687Z,52.83
2019-01-05T15:46:06.670Z,72.40
2019-01-05T15:48:56.026Z,52.53
2019-01-05T15:52:04.819Z,53.87
2019-01-05T15:54:56.714Z,49.13
2019-01-05T15:57:44.773Z,49.37
2019-01-05T16:00:43.431Z,53.30
2019-01-05T16:03:41.871Z,51.53
2019-01-05T16:06:33.955Z,49.57
2019-01-05T16:09:24.006Z,51.03
2019-01-05T16:12:15.637Z,53.23
2019-01-05T16:15:04.288Z,51.83
2019-01-05T16:17:59.529Z,46.97
2019-01-05T16:20:52.380Z,53.07
2019-01-05T16:23:40.761Z,52.57
2019-01-05T16:26:48.347Z,51.77
2019-01-05T16:29:40.761Z,45.67
2019-01-05T16:32:28.480Z,49.27
2019-01-05T16:35:17.827Z,53.93
2019-01-05T16:38:01.354Z,49.77
2019-01-05T16:40:49.448Z,50.10
2019-01-05T16:43:38.803Z,38.90
2019-01-05T16:46:40.189Z,47.83
2019-01-05T16:49:28.607Z,50.87
2019-01-05T16:52:16.810Z,48.17
2019-01-05T16:55:24.434Z,44.03
2019-01-05T16:58:13.804Z,47.07
2019-01-05T17:01:22.632Z,50.60
2019-01-05T17:04:12.699Z,47.97
2019-01-05T17:07:01.999Z,50.73
2019-01-05T17:09:51.361Z,49.03
2019-01-05T17:12:39.501Z,51.83
2019-01-05T17:15:43.992Z,45.60
2019-01-05T17:18:33.449Z,44.67
2019-01-05T17:21:19.300Z,47.10
2019-01-05T17:24:07.609Z,48.03
2019-01-05T17:26:59.688Z,52.07
2019-01-05T17:29:45.118Z,49.83
2019-01-05T17:32:40.784Z,49.93
2019-01-05T17:35:30.808Z,46.77
2019-01-05T17:38:26.003Z,48.93
2019-01-05T17:41:25.588Z,53.00
2019-01-05T17:44:17.709Z,57.20
2019-01-05T17:47:10.159Z,50.87
2019-01-05T17:50:11.771Z,46.77
2019-01-05T17:53:07.116Z,47.90
2019-01-05T17:55:56.472Z,52.60
2019-01-05T17:58:54.706Z,50.47
2019-01-05T18:01:43.103Z,48.17
2019-01-05T18:04:49.834Z,46.93
2019-01-05T18:07:37.974Z,50.33
2019-01-05T18:10:35.398Z,46.83
2019-01-05T18:13:21.229Z,43.47
2019-01-05T18:16:22.938Z,50.73
2019-01-05T18:19:21.625Z,45.47
2019-01-05T18:22:12.608Z,42.13
2019-01-05T18:25:02.597Z,43.53
2019-01-05T18:27:50.867Z,42.83
2019-01-05T18:30:39.087Z,41.17
2019-01-05T18:33:46.784Z,38.57
2019-01-05T18:36:36.144Z,41.93
2019-01-05T18:39:25.599Z,45.20
2019-01-05T18:42:14.039Z,42.37
2019-01-05T18:45:02.255Z,50.77
2019-01-05T18:47:59.417Z,49.53
2019-01-05T18:50:41.456Z,41.63
2019-01-05T18:53:30.783Z,42.00
2019-01-05T18:56:18.866Z,43.07
2019-01-05T18:59:10.110Z,43.27
2019-01-05T19:02:02.599Z,41.87
2019-01-05T19:04:58.011Z,42.17
2019-01-05T19:07:47.469Z,43.30
2019-01-05T19:10:35.814Z,45.60
2019-01-05T19:13:25.117Z,45.70
2019-01-05T19:16:17.512Z,39.67
2019-01-05T19:19:16.066Z,36.30
2019-01-05T19:22:03.977Z,34.03
2019-01-05T19:25:08.599Z,36.33
2019-01-05T19:27:51.511Z,34.97
2019-01-05T19:30:52.997Z,37.10
2019-01-05T19:33:37.927Z,34.57
2019-01-05T19:36:33.309Z,31.83
2019-01-05T19:39:08.510Z,35.03
2019-01-05T19:41:56.833Z,38.77
2019-01-05T19:44:45.994Z,38.30
2019-01-05T19:47:34.032Z,31.43
2019-01-05T19:50:22.996Z,34.47
2019-01-05T19:53:27.545Z,32.27
2019-01-05T19:56:26.220Z,33.60
2019-01-05T19:59:16.375Z,34.47
2019-01-05T20:02:07.007Z,34.83
2019-01-05T20:05:11.664Z,34.33
2019-01-05T20:08:03.844Z,34.93
2019-01-05T20:10:59.495Z,32.93
2019-01-05T20:13:57.897Z,35.37
2019-01-05T20:16:49.766Z,30.77
2019-01-05T20:19:48.331Z,33.23
2019-01-05T20:22:44.703Z,26.43
2019-01-05T20:25:34.006Z,29.17
2019-01-05T20:28:22.129Z,32.60
2019-01-05T20:31:17.472Z,28.27
2019-01-05T20:34:07.567Z,30.77
2019-01-05T20:36:55.721Z,29.30
2019-01-05T20:39:33.971Z,31.33
2019-01-05T20:42:23.407Z,32.57
2019-01-05T20:45:10.943Z,31.77
2019-01-05T20:47:59.105Z,29.47
2019-01-05T20:50:42.420Z,30.33
2019-01-05T20:53:30.416Z,31.70
2019-01-05T20:56:16.482Z,31.83
2019-01-05T20:59:15.205Z,32.33
2019-01-05T21:02:13.654Z,31.13
2019-01-05T21:05:01.692Z,32.47
2019-01-05T21:07:51.101Z,32.97
2019-01-05T21:10:39.806Z,32.67
2019-01-05T21:13:28.030Z,33.20
2019-01-05T21:16:32.855Z,34.17
2019-01-05T21:19:22.213Z,34.20
2019-01-05T21:22:17.729Z,31.73
2019-01-05T21:25:05.829Z,31.40
2019-01-05T21:27:57.941Z,33.07
2019-01-05T21:30:45.861Z,31.07
2019-01-05T21:33:47.410Z,33.53
2019-01-05T21:36:35.867Z,31.13
2019-01-05T21:39:25.998Z,34.90
2019-01-05T21:42:31.064Z,32.37
2019-01-05T21:45:19.151Z,31.30
2019-01-05T21:48:08.745Z,31.53
2019-01-05T21:51:10.174Z,33.53
2019-01-05T21:53:54.548Z,31.80
2019-01-05T21:56:55.858Z,30.73
2019-01-05T21:59:51.455Z,29.23
2019-01-05T22:02:37.769Z,32.20
2019-01-05T22:05:29.850Z,29.03
2019-01-05T22:08:16.795Z,27.43
2019-01-05T22:11:04.963Z,28.80
2019-01-05T22:13:52.301Z,26.17
2019-01-05T22:16:44.706Z,26.03
2019-01-05T22:19:31.052Z,27.50
2019-01-05T22:22:17.527Z,28.90
2019-01-05T22:25:18.341Z,26.17
2019-01-05T22:28:10.426Z,27.77
2019-01-05T22:30:58.468Z,28.27
2019-01-05T22:33:58.381Z,27.47
2019-01-05T22:36:50.738Z,25.20
2019-01-05T22:39:38.485Z,27.73
2019-01-05T22:42:27.769Z,26.03
2019-01-05T22:45:18.666Z,24.13
2019-01-05T22:48:06.634Z,23.37
2019-01-05T22:50:56.859Z,24.67
2019-01-05T22:53:49.298Z,24.37
2019-01-05T22:56:37.558Z,25.37
2019-01-05T22:59:45.326Z,25.20
2019-01-05T23:02:49.874Z,23.60
2019-01-05T23:05:42.080Z,25.57
2019-01-05T23:08:46.779Z,24.57
2019-01-05T23:11:32.475Z,24.83
2019-01-05T23:14:24.942Z,22.70
2019-01-05T23:17:13.094Z,25.03
2019-01-05T23:20:01.120Z,25.97
2019-01-05T23:22:49.452Z,27.67
2019-01-05T23:25:41.758Z,26.10
2019-01-05T23:28:46.220Z,26.40
2019-01-05T23:31:41.571Z,25.07
2019-01-05T23:34:34.028Z,26.43
2019-01-05T23:37:22.321Z,30.30
2019-01-05T23:40:11.015Z,26.37
2019-01-05T23:43:09.181Z,26.57
2019-01-05T23:45:57.165Z,26.33
2019-01-05T23:48:49.251Z,28.33
2019-01-05T23:51:44.667Z,29.90
2019-01-05T23:54:32.709Z,28.37
2019-01-05T23:57:21.970Z,28.63
